AirNav   Everest Fuels
 
 842 users online  

20CL Mysterious Valley Airport
Pope Valley, California, USA

GOING TO POPE VALLEY?


FAA INFORMATION EFFECTIVE 26 JANUARY 2023

Location

FAA Identifier: 20CL
Lat/Long: 38-44-57.6490N 122-22-02.9220W
38-44.960817N 122-22.048700W
38.7493469,-122.3674783
(estimated)
Elevation: 1410 ft. / 430 m (estimated)
Variation: 16E (1985)
From city: 9 miles N of POPE VALLEY, CA
Time zone: UTC -8 (UTC -7 during Daylight Saving Time)
Zip code: 94558

Airport Operations

Airport use: Private use. Permission required prior to landing
Activation date: 05/1971
Control tower: no
ARTCC: OAKLAND CENTER
FSS: OAKLAND FLIGHT SERVICE STATION
Attendance: IREG
Wind indicator: yes
Segmented circle: no

Nearby radio navigation aids

VOR radial/distance  VOR name  Freq  Var
ILAr201/25.0WILLIAMS VORTAC114.4018E
SGDr343/34.2SCAGGS ISLAND VORTAC112.1017E

Airport Services

Airframe service: NONE
Powerplant service: NONE

Runway Information

Runway 14/32

Dimensions: 3500 x 30 ft. / 1067 x 9 m
Surface: gravel
RUNWAY 14  RUNWAY 32
Traffic pattern: leftleft

Airport Ownership and Management from official FAA records

Ownership: Privately-owned
Owner: PERRY CLARK
AMIZETTA WINERY 1099 GREENFIELD RD
ST HELENA, CA 94574

Airport Operational Statistics

Aircraft based on the field: 2
Single engine airplanes: 2
    

Additional Remarks

HAZARDOUS STRIP-SURROUNDED BY HILLS, 95 FT FENCE TO FENCE.
FOR CD CTC OAKLAND ARTCC AT 510-745-3380.

Instrument Procedures

There are no published instrument procedures at 20CL.

Some nearby airports with instrument procedures:

O41 - Watts-Woodland Airport (24 nm E)
KSTS - Charles M Schulz - Sonoma County Airport (25 nm SW)
KDWA - Yolo County Airport (26 nm SE)
1O2 - Lampson Field Airport (29 nm NW)
O60 - Cloverdale Municipal Airport (29 nm W)
 
Loc | Ops | Rwys | IFR | FBO | Links
Com | Nav | Svcs | Stats | Notes

Sonoma Jet Center
 
Area around 20CL (Mysterious Valley Airport)
 
Road maps at: MapQuest Bing Google
 
Aerial photo
WARNING: Photo may not be current or correct
Aerial photo of 20CL (Mysterious Valley Airport)
Do you have a better or more recent aerial photo of Mysterious Valley Airport that you would like to share? If so, please send us your photo.

 
Sectional chart

 
Airport distance calculator
Flying to Mysterious Valley Airport? Find the distance to fly.

From to 20CL

Sunrise and sunset
Times for 31-Jan-2023
 Local
(UTC-8)
 Zulu
(UTC)
Morning civil twilight06:4914:49
Sunrise07:1715:17
Sunset17:2901:29
Evening civil twilight17:5701:57

Current date and time
Zulu (UTC)  31-Jan-2023 12:51:06
Local (UTC-8)  31-Jan-2023 04:51:06
 
METAR
KSTS 
26nm SW 
707-573-8393
311153Z AUTO 33009KT 10SM CLR M02/M06 A3018 RMK AO2 SLP213 T10171061 10083 21028 50008
KDWA 
26nm SE 
311235Z AUTO 32012KT 10SM SCT040 SCT046 BKN055 05/M12 A3019 RMK AO2
KVCB 
29nm SE 
311153Z AUTO 36011KT 10SM CLR 08/M14 A3017 RMK AO2 SLP217 T00831144 10094 20078 50002
KEDU 
30nm SE 
311235Z AUTO 34010G14KT 10SM CLR 05/M12 A3018 RMK AO1
KO69 
32nm S 
311235Z AUTO VRB05KT 10SM CLR M03/M06 A3019 RMK A01
KAPC 
33nm S 
311154Z 20006KT 10SM CLR 03/M07 A3018 RMK AO2 SLP210 T00281067 10100 21006 51006
KSUU 
36nm SE 
311155Z AUTO 32005KT 10SM CLR 06/M13 A3015 RMK AO2 SLP217 T00621134 10087 20062 50003 $
KSMF 
36nm E 
311153Z 32010KT 10SM CLR 03/M06 A3016 RMK AO2 SLP212 T00281061 10067 20028 50000
KDVO 
37nm S 
311235Z AUTO 19004KT 10SM CLR M01/M05 A3018 RMK AO2
KMYV 
43nm NE 
311153Z AUTO 34011KT 10SM CLR 04/M09 A3017 RMK AO2 SLP220 T00441094 10061 20044 58004 $
TAF
KSTS 
26nm SW 
311120Z 3112/0112 VRB04KT P6SM SKC FM312200 19007KT P6SM SKC FM010300 15004KT P6SM SCT250 FM010900 00000KT 4SM BR SCT004
NOTAMs
Click for the latest NOTAMs
NOTAMs are issued by the DoD/FAA and will open in a separate window not controlled by AirNav.

 

 
 

Would you like to see your business listed on this page?

 If your business provides an interesting product or service to pilots, flight crews, aircraft, or users of the Mysterious Valley Airport, you should consider listing it here.  To start the listing process, click on the button below
 
Add a business
 

Other Pages about Mysterious Valley Airport

Update a link
 
Copyright © AirNav, LLC. All rights reserved. Privacy Policy  Contact